createdAt,value
2023-04-11T00:01:31.043Z,98630.00
2023-04-11T00:04:01.191Z,98628.00
2023-04-11T00:06:31.505Z,98633.00
2023-04-11T00:09:00.714Z,98629.00
2023-04-11T00:11:30.025Z,98648.00
2023-04-11T00:13:59.707Z,98651.00
2023-04-11T00:16:29.178Z,98655.00
2023-04-11T00:18:58.497Z,98667.00
2023-04-11T00:21:27.900Z,98670.00
2023-04-11T00:23:57.745Z,98668.00
2023-04-11T00:26:27.285Z,98668.00
2023-04-11T00:28:56.906Z,98681.00
2023-04-11T00:31:26.588Z,98680.00
2023-04-11T00:33:55.908Z,98684.00
2023-04-11T00:36:25.229Z,98698.00
2023-04-11T00:39:02.899Z,98694.00
2023-04-11T00:41:32.951Z,98706.00
2023-04-11T00:44:02.278Z,98715.00
2023-04-11T00:46:31.985Z,98716.00
2023-04-11T00:49:01.546Z,98718.00
2023-04-11T00:51:30.946Z,98728.00
2023-04-11T00:54:00.196Z,98739.00
2023-04-11T00:56:32.830Z,98738.00
2023-04-11T00:59:02.264Z,98745.00
2023-04-11T01:01:37.208Z,98737.00
2023-04-11T01:04:07.329Z,98754.00
2023-04-11T01:06:37.575Z,98758.00
2023-04-11T01:09:06.881Z,98761.00
2023-04-11T01:11:36.252Z,98766.00
2023-04-11T01:14:06.199Z,98766.00
2023-04-11T01:16:37.443Z,98773.00
2023-04-11T01:19:08.302Z,98769.00
2023-04-11T01:21:38.909Z,98772.00
2023-04-11T01:24:08.939Z,98777.00
2023-04-11T01:26:38.567Z,98776.00
2023-04-11T01:29:07.920Z,98786.00
2023-04-11T01:31:37.552Z,98777.00
2023-04-11T01:34:08.426Z,98783.00
2023-04-11T01:36:38.284Z,98782.00
2023-04-11T01:39:11.449Z,98779.00
2023-04-11T01:41:42.593Z,98785.00
2023-04-11T01:44:12.163Z,98787.00
2023-04-11T01:46:41.944Z,98791.00
2023-04-11T01:49:11.540Z,98796.00
2023-04-11T01:51:51.906Z,98800.00
2023-04-11T01:54:21.255Z,98802.00
2023-04-11T01:56:55.280Z,98807.00
2023-04-11T01:59:24.909Z,98807.00
2023-04-11T02:01:59.179Z,98815.00
2023-04-11T02:04:28.798Z,98810.00
2023-04-11T02:07:01.199Z,98811.00
2023-04-11T02:09:33.576Z,98812.00
2023-04-11T02:12:05.722Z,98808.00
2023-04-11T02:15:01.252Z,98804.00
2023-04-11T02:17:32.094Z,98808.00
2023-04-11T02:20:01.353Z,98807.00
2023-04-11T02:22:30.621Z,98812.00
2023-04-11T02:25:05.588Z,98809.00
2023-04-11T02:27:35.845Z,98814.00
2023-04-11T02:30:08.740Z,98810.00
2023-04-11T02:32:39.353Z,98818.00
2023-04-11T02:35:09.138Z,98810.00
2023-04-11T02:37:39.140Z,98823.00
2023-04-11T02:40:09.742Z,98818.00
2023-04-11T02:42:41.485Z,98821.00
2023-04-11T02:45:12.638Z,98813.00
2023-04-11T02:47:42.476Z,98817.00
2023-04-11T02:50:12.281Z,98813.00
2023-04-11T02:52:43.159Z,98821.00
2023-04-11T02:55:13.336Z,98811.00
2023-04-11T02:57:42.674Z,98812.00
2023-04-11T03:00:12.720Z,98810.00
2023-04-11T03:02:42.600Z,98812.00
2023-04-11T03:05:12.067Z,98812.00
2023-04-11T03:07:41.608Z,98797.00
2023-04-11T03:10:11.228Z,98805.00
2023-04-11T03:12:40.715Z,98802.00
2023-04-11T03:15:10.685Z,98802.00
2023-04-11T03:17:39.956Z,98798.00
2023-04-11T03:20:12.729Z,98785.00
2023-04-11T03:22:42.243Z,98784.00
2023-04-11T03:25:11.805Z,98784.00
2023-04-11T03:27:41.108Z,98780.00
2023-04-11T03:30:11.250Z,98778.00
2023-04-11T03:32:40.524Z,98774.00
2023-04-11T03:35:10.336Z,98770.00
2023-04-11T03:37:39.636Z,98774.00
2023-04-11T03:40:10.320Z,98768.00
2023-04-11T03:42:39.556Z,98759.00
2023-04-11T03:45:09.974Z,98756.00
2023-04-11T03:47:41.987Z,98750.00
2023-04-11T03:50:12.494Z,98754.00
2023-04-11T03:52:41.761Z,98750.00
2023-04-11T03:55:11.398Z,98748.00
2023-04-11T03:57:40.669Z,98744.00
2023-04-11T04:00:11.150Z,98742.00
2023-04-11T04:02:40.657Z,98738.00
2023-04-11T04:05:10.208Z,98733.00
2023-04-11T04:07:39.633Z,98734.00
2023-04-11T04:10:09.658Z,98731.00
2023-04-11T04:12:38.798Z,98719.00
2023-04-11T04:15:08.836Z,98721.00
2023-04-11T04:17:39.279Z,98712.00
2023-04-11T04:20:11.844Z,98716.00
2023-04-11T04:22:41.257Z,98717.00
2023-04-11T04:25:13.647Z,98707.00
2023-04-11T04:27:45.256Z,98702.00
2023-04-11T04:30:20.057Z,98708.00
2023-04-11T04:32:49.288Z,98700.00
2023-04-11T04:35:19.078Z,98693.00
2023-04-11T04:37:48.294Z,98686.00
2023-04-11T04:40:21.520Z,98690.00
2023-04-11T04:42:59.093Z,98686.00
2023-04-11T04:45:28.324Z,98674.00
2023-04-11T04:47:57.558Z,98672.00
2023-04-11T04:50:26.981Z,98673.00
2023-04-11T04:52:56.253Z,98668.00
2023-04-11T04:55:25.425Z,98661.00
2023-04-11T04:57:57.737Z,98662.00
2023-04-11T05:00:27.281Z,98657.00
2023-04-11T05:02:56.570Z,98654.00
2023-04-11T05:05:25.971Z,98646.00
2023-04-11T05:07:55.159Z,98645.00
2023-04-11T05:10:24.787Z,98635.00
2023-04-11T05:12:54.553Z,98634.00
2023-04-11T05:15:24.509Z,98623.00
2023-04-11T05:17:53.772Z,98613.00
2023-04-11T05:20:23.113Z,98616.00
2023-04-11T05:22:54.470Z,98611.00
2023-04-11T05:25:23.657Z,98605.00
2023-04-11T05:27:52.827Z,98591.00
2023-04-11T05:30:22.099Z,98592.00
2023-04-11T05:32:51.486Z,98588.00
2023-04-11T05:35:20.815Z,98577.00
2023-04-11T05:37:50.693Z,98579.00
2023-04-11T05:40:20.084Z,98569.00
2023-04-11T05:42:49.379Z,98558.00
2023-04-11T05:45:18.732Z,98556.00
2023-04-11T05:47:48.055Z,98554.00
2023-04-11T05:50:17.734Z,98540.00
2023-04-11T05:52:47.111Z,98534.00
2023-04-11T05:55:16.752Z,98526.00
2023-04-11T05:57:46.093Z,98525.00
2023-04-11T06:00:17.842Z,98520.00
2023-04-11T06:02:47.530Z,98519.00
2023-04-11T06:05:18.667Z,98507.00
2023-04-11T06:07:48.297Z,98504.00
2023-04-11T06:10:17.648Z,98506.00
2023-04-11T06:12:46.993Z,98503.00
2023-04-11T06:15:16.685Z,98501.00
2023-04-11T06:17:46.466Z,98491.00
2023-04-11T06:20:16.935Z,98489.00
2023-04-11T06:22:47.898Z,98478.00
2023-04-11T06:25:17.120Z,98477.00
2023-04-11T06:27:46.803Z,98467.00
2023-04-11T06:30:17.050Z,98458.00
2023-04-11T06:32:46.827Z,98456.00
2023-04-11T06:35:16.115Z,98447.00
2023-04-11T06:37:46.978Z,98449.00
2023-04-11T06:40:18.196Z,98444.00
2023-04-11T06:42:48.320Z,98435.00
2023-04-11T06:45:17.765Z,98433.00
2023-04-11T06:47:47.101Z,98427.00
2023-04-11T06:50:16.484Z,98427.00
2023-04-11T06:52:45.800Z,98423.00
2023-04-11T06:55:16.426Z,98409.00
2023-04-11T06:57:46.199Z,98406.00
2023-04-11T07:00:17.349Z,98403.00
2023-04-11T07:02:46.900Z,98387.00
2023-04-11T07:05:16.610Z,98377.00
2023-04-11T07:07:45.994Z,98373.00
2023-04-11T07:10:15.241Z,98381.00
2023-04-11T07:12:44.528Z,98372.00
2023-04-11T07:15:13.879Z,98374.00
2023-04-11T07:17:43.178Z,98367.00
2023-04-11T07:20:13.425Z,98362.00
2023-04-11T07:22:45.690Z,98366.00
2023-04-11T07:25:15.205Z,98358.00
2023-04-11T07:27:47.414Z,98352.00
2023-04-11T07:30:17.187Z,98349.00
2023-04-11T07:32:46.714Z,98340.00
2023-04-11T07:35:16.272Z,98343.00
2023-04-11T07:37:46.530Z,98333.00
2023-04-11T07:40:16.486Z,98335.00
2023-04-11T07:42:47.256Z,98327.00
2023-04-11T07:45:16.840Z,98337.00
2023-04-11T07:47:46.338Z,98327.00
2023-04-11T07:50:15.791Z,98329.00
2023-04-11T07:52:45.093Z,98328.00
2023-04-11T07:55:14.415Z,98318.00
2023-04-11T07:57:43.722Z,98322.00
2023-04-11T08:00:23.174Z,98316.00
2023-04-11T08:02:53.390Z,98306.00
2023-04-11T08:05:23.102Z,98313.00
2023-04-11T08:07:52.613Z,98300.00
2023-04-11T08:10:21.941Z,98298.00
2023-04-11T08:12:58.875Z,98295.00
2023-04-11T08:15:28.495Z,98293.00
2023-04-11T08:17:58.883Z,98292.00
2023-04-11T08:20:28.248Z,98285.00
2023-04-11T08:23:03.592Z,98285.00
2023-04-11T08:25:34.379Z,98278.00
2023-04-11T08:28:03.724Z,98271.00
2023-04-11T08:30:33.431Z,98279.00
2023-04-11T08:33:02.746Z,98285.00
2023-04-11T08:35:32.091Z,98282.00
2023-04-11T08:38:01.404Z,98274.00
2023-04-11T08:40:31.736Z,98278.00
2023-04-11T08:43:02.159Z,98278.00
2023-04-11T08:45:31.521Z,98271.00
2023-04-11T08:48:00.885Z,98270.00
2023-04-11T08:50:30.131Z,98267.00
2023-04-11T08:53:04.580Z,98263.00
2023-04-11T08:55:34.281Z,98265.00
2023-04-11T08:58:04.750Z,98264.00
2023-04-11T09:00:34.238Z,98260.00
2023-04-11T09:03:09.755Z,98268.00
2023-04-11T09:05:42.047Z,98263.00
2023-04-11T09:08:14.553Z,98269.00
2023-04-11T09:10:46.581Z,98262.00
2023-04-11T09:13:29.464Z,98260.00
2023-04-11T09:16:11.364Z,98256.00
2023-04-11T09:18:44.202Z,98259.00
2023-04-11T09:21:16.613Z,98263.00
2023-04-11T09:23:45.981Z,98255.00
2023-04-11T09:26:28.286Z,98252.00
2023-04-11T09:28:58.105Z,98257.00
2023-04-11T09:31:47.854Z,98256.00
2023-04-11T09:34:28.546Z,98251.00
2023-04-11T09:36:58.332Z,98250.00
2023-04-11T09:39:30.413Z,98256.00
2023-04-11T09:42:00.123Z,98255.00
2023-04-11T09:44:39.960Z,98252.00
2023-04-11T09:47:10.413Z,98252.00
2023-04-11T09:49:41.150Z,98252.00
2023-04-11T09:52:10.766Z,98259.00
2023-04-11T09:54:40.608Z,98262.00
2023-04-11T09:57:11.141Z,98267.00
2023-04-11T09:59:42.333Z,98271.00
2023-04-11T10:02:11.651Z,98263.00
2023-04-11T10:04:41.793Z,98263.00
2023-04-11T10:07:20.517Z,98260.00
2023-04-11T10:09:50.136Z,98268.00
2023-04-11T10:12:36.220Z,98267.00
2023-04-11T10:15:09.702Z,98259.00
2023-04-11T10:17:39.049Z,98266.00
2023-04-11T10:20:44.709Z,98275.00
2023-04-11T10:23:15.230Z,98274.00
2023-04-11T10:25:56.550Z,98271.00
2023-04-11T10:28:40.774Z,98280.00
2023-04-11T10:31:18.386Z,98278.00
2023-04-11T10:34:16.301Z,98290.00
2023-04-11T10:37:05.480Z,98287.00
2023-04-11T10:39:54.809Z,98289.00
2023-04-11T10:42:38.958Z,98287.00
2023-04-11T10:45:29.181Z,98294.00
2023-04-11T10:48:08.494Z,98295.00
2023-04-11T10:50:44.186Z,98286.00
2023-04-11T10:53:38.208Z,98294.00
2023-04-11T10:56:07.814Z,98291.00
2023-04-11T10:58:40.696Z,98295.00
2023-04-11T11:01:26.600Z,98298.00
2023-04-11T11:04:07.086Z,98292.00
2023-04-11T11:06:46.750Z,98302.00
2023-04-11T11:09:24.501Z,98301.00
2023-04-11T11:12:14.910Z,98304.00
2023-04-11T11:14:48.170Z,98310.00
2023-04-11T11:17:18.712Z,98298.00
2023-04-11T11:19:49.680Z,98300.00
2023-04-11T11:22:29.646Z,98295.00
2023-04-11T11:25:10.319Z,98296.00
2023-04-11T11:27:39.552Z,98302.00
2023-04-11T11:30:15.783Z,98300.00
2023-04-11T11:32:45.025Z,98307.00
2023-04-11T11:35:17.442Z,98302.00
2023-04-11T11:37:47.464Z,98312.00
2023-04-11T11:40:18.194Z,98310.00
2023-04-11T11:42:47.521Z,98311.00
2023-04-11T11:47:59.940Z,98324.00
2023-04-11T11:50:33.170Z,98320.00
2023-04-11T11:53:16.582Z,98327.00
2023-04-11T11:55:46.220Z,98328.00
2023-04-11T11:58:15.854Z,98326.00
2023-04-11T12:00:48.807Z,98334.00
2023-04-11T12:03:25.829Z,98338.00
2023-04-11T12:05:59.090Z,98337.00
2023-04-11T12:08:28.401Z,98349.00
2023-04-11T12:10:57.655Z,98353.00
2023-04-11T12:13:28.744Z,98358.00
2023-04-11T12:16:03.167Z,98351.00
2023-04-11T12:18:38.182Z,98360.00
2023-04-11T12:21:10.754Z,98360.00
2023-04-11T12:23:46.206Z,98368.00
2023-04-11T12:26:15.458Z,98366.00
2023-04-11T12:28:45.511Z,98369.00
2023-04-11T12:31:15.622Z,98372.00
2023-04-11T12:33:48.568Z,98377.00
2023-04-11T12:36:27.929Z,98367.00
2023-04-11T12:38:58.096Z,98373.00
2023-04-11T12:41:32.827Z,98374.00
2023-04-11T12:44:03.337Z,98388.00
2023-04-11T12:46:35.459Z,98381.00
2023-04-11T12:49:07.745Z,98384.00
2023-04-11T12:51:44.299Z,98395.00
2023-04-11T12:54:14.059Z,98397.00
2023-04-11T12:59:34.815Z,98404.00
2023-04-11T13:02:09.074Z,98411.00
2023-04-11T13:04:41.591Z,98413.00
2023-04-11T13:07:13.797Z,98413.00
2023-04-11T13:09:50.923Z,98419.00
2023-04-11T13:12:22.952Z,98412.00
2023-04-11T13:14:55.247Z,98421.00
2023-04-11T13:17:29.780Z,98417.00
2023-04-11T13:20:01.557Z,98420.00
2023-04-11T13:22:44.851Z,98419.00
2023-04-11T13:25:14.465Z,98418.00
2023-04-11T13:27:44.260Z,98421.00
2023-04-11T13:30:14.530Z,98418.00
2023-04-11T13:32:43.851Z,98423.00
2023-04-11T13:35:13.119Z,98430.00
2023-04-11T13:37:45.981Z,98441.00
2023-04-11T13:40:18.520Z,98441.00
2023-04-11T13:42:48.377Z,98440.00
2023-04-11T13:45:17.638Z,98452.00
2023-04-11T13:47:55.663Z,98452.00
2023-04-11T13:50:25.418Z,98460.00
2023-04-11T13:52:54.709Z,98460.00
2023-04-11T13:55:24.524Z,98459.00
2023-04-11T13:57:53.863Z,98463.00
2023-04-11T14:00:24.093Z,98463.00
2023-04-11T14:02:53.544Z,98472.00
2023-04-11T14:05:29.048Z,98465.00
2023-04-11T14:07:58.549Z,98465.00
2023-04-11T14:10:27.915Z,98467.00
2023-04-11T14:12:57.312Z,98464.00
2023-04-11T14:15:35.911Z,98477.00
2023-04-11T14:18:07.008Z,98467.00
2023-04-11T14:20:36.657Z,98478.00
2023-04-11T14:23:06.401Z,98474.00
2023-04-11T14:25:38.776Z,98474.00
2023-04-11T14:28:08.137Z,98484.00
2023-04-11T14:30:37.790Z,98491.00
2023-04-11T14:33:07.226Z,98490.00
2023-04-11T14:35:36.895Z,98494.00
2023-04-11T14:38:07.204Z,98495.00
2023-04-11T14:40:36.425Z,98495.00
2023-04-11T14:43:08.905Z,98500.00
2023-04-11T14:45:38.199Z,98504.00
2023-04-11T14:48:07.791Z,98508.00
2023-04-11T14:50:37.088Z,98502.00
2023-04-11T14:53:06.478Z,98502.00
2023-04-11T14:55:35.736Z,98501.00
2023-04-11T14:58:07.802Z,98501.00
2023-04-11T15:00:39.827Z,98505.00
2023-04-11T15:03:09.195Z,98495.00
2023-04-11T15:05:40.338Z,98503.00
2023-04-11T15:08:12.337Z,98507.00
2023-04-11T15:10:41.940Z,98508.00
2023-04-11T15:13:12.879Z,98509.00
2023-04-11T15:15:42.219Z,98513.00
2023-04-11T15:18:28.855Z,98518.00
2023-04-11T15:21:00.641Z,98522.00
2023-04-11T15:23:30.193Z,98516.00
2023-04-11T15:26:04.792Z,98516.00
2023-04-11T15:28:40.251Z,98513.00
2023-04-11T15:31:10.527Z,98515.00
2023-04-11T15:33:39.978Z,98510.00
2023-04-11T15:36:09.966Z,98505.00
2023-04-11T15:38:39.316Z,98511.00
2023-04-11T15:41:09.581Z,98506.00
2023-04-11T15:43:39.685Z,98507.00
2023-04-11T15:46:09.511Z,98513.00
2023-04-11T15:48:38.719Z,98506.00
2023-04-11T15:51:12.857Z,98511.00
2023-04-11T15:53:42.272Z,98512.00
2023-04-11T15:56:14.507Z,98507.00
2023-04-11T15:58:43.832Z,98501.00
2023-04-11T16:01:26.572Z,98506.00
2023-04-11T16:03:56.780Z,98492.00
2023-04-11T16:06:26.900Z,98500.00
2023-04-11T16:08:56.516Z,98498.00
2023-04-11T16:11:25.848Z,98499.00
2023-04-11T16:13:56.221Z,98502.00
2023-04-11T16:16:26.072Z,98501.00
2023-04-11T16:18:55.372Z,98501.00
2023-04-11T16:21:25.803Z,98493.00
2023-04-11T16:23:58.361Z,98490.00
2023-04-11T16:26:28.954Z,98490.00
2023-04-11T16:28:58.184Z,98486.00
2023-04-11T16:31:27.448Z,98485.00
2023-04-11T16:33:57.062Z,98482.00
2023-04-11T16:36:27.709Z,98484.00
2023-04-11T16:38:58.079Z,98476.00
2023-04-11T16:41:27.558Z,98476.00
2023-04-11T16:43:57.182Z,98468.00
2023-04-11T16:46:26.932Z,98471.00
2023-04-11T16:48:56.398Z,98475.00
2023-04-11T16:51:25.887Z,98473.00
2023-04-11T16:53:55.356Z,98475.00
2023-04-11T16:56:26.744Z,98469.00
2023-04-11T16:58:57.906Z,98469.00
2023-04-11T17:01:27.353Z,98474.00
2023-04-11T17:03:57.132Z,98468.00
2023-04-11T17:06:26.984Z,98464.00
2023-04-11T17:08:58.383Z,98462.00
2023-04-11T17:11:27.965Z,98461.00
2023-04-11T17:13:57.619Z,98458.00
2023-04-11T17:16:30.295Z,98463.00
2023-04-11T17:18:59.637Z,98461.00
2023-04-11T17:21:29.119Z,98457.00
2023-04-11T17:23:58.601Z,98449.00
2023-04-11T17:26:28.338Z,98446.00
2023-04-11T17:28:57.945Z,98451.00
2023-04-11T17:31:29.052Z,98447.00
2023-04-11T17:33:58.784Z,98442.00
2023-04-11T17:36:29.318Z,98447.00
2023-04-11T17:38:59.048Z,98443.00
2023-04-11T17:41:28.344Z,98432.00
2023-04-11T17:43:58.784Z,98438.00
2023-04-11T17:46:31.432Z,98430.00
2023-04-11T17:49:00.774Z,98438.00
2023-04-11T17:51:30.144Z,98435.00
2023-04-11T17:53:59.929Z,98431.00
2023-04-11T17:56:29.602Z,98426.00
2023-04-11T17:58:59.034Z,98421.00
2023-04-11T18:01:33.109Z,98424.00
2023-04-11T18:04:03.188Z,98419.00
2023-04-11T18:06:35.176Z,98419.00
2023-04-11T18:09:08.514Z,98415.00
2023-04-11T18:11:38.136Z,98415.00
2023-04-11T18:14:07.466Z,98413.00
2023-04-11T18:16:41.041Z,98415.00
2023-04-11T18:19:10.345Z,98412.00
2023-04-11T18:21:42.047Z,98407.00
2023-04-11T18:24:16.227Z,98406.00
2023-04-11T18:26:45.583Z,98410.00
2023-04-11T18:29:15.064Z,98391.00
2023-04-11T18:31:44.512Z,98397.00
2023-04-11T18:34:14.278Z,98386.00
2023-04-11T18:36:44.753Z,98394.00
2023-04-11T18:39:14.871Z,98380.00
2023-04-11T18:41:45.225Z,98380.00
2023-04-11T18:44:14.807Z,98380.00
2023-04-11T18:46:44.329Z,98370.00
2023-04-11T18:49:17.609Z,98380.00
2023-04-11T18:51:47.720Z,98381.00
2023-04-11T18:54:17.146Z,98378.00
2023-04-11T18:56:48.674Z,98380.00
2023-04-11T18:59:24.963Z,98371.00
2023-04-11T19:01:55.209Z,98374.00
2023-04-11T19:04:25.895Z,98371.00
2023-04-11T19:06:55.415Z,98367.00
2023-04-11T19:09:27.694Z,98373.00
2023-04-11T19:11:57.033Z,98365.00
2023-04-11T19:14:26.309Z,98366.00
2023-04-11T19:16:55.814Z,98370.00
2023-04-11T19:19:25.601Z,98368.00
2023-04-11T19:21:54.939Z,98362.00
2023-04-11T19:24:24.759Z,98362.00
2023-04-11T19:26:54.466Z,98357.00
2023-04-11T19:29:23.780Z,98361.00
2023-04-11T19:31:53.498Z,98358.00
2023-04-11T19:34:22.858Z,98354.00
2023-04-11T19:36:52.901Z,98353.00
2023-04-11T19:39:22.356Z,98353.00
2023-04-11T19:41:53.180Z,98351.00
2023-04-11T19:44:22.741Z,98347.00
2023-04-11T19:46:52.263Z,98335.00
2023-04-11T19:49:21.578Z,98334.00
2023-04-11T19:51:50.983Z,98337.00
2023-04-11T19:54:20.328Z,98338.00
2023-04-11T19:56:50.445Z,98337.00
2023-04-11T19:59:19.720Z,98338.00
2023-04-11T20:01:49.207Z,98335.00
2023-04-11T20:04:18.848Z,98340.00
2023-04-11T20:06:51.689Z,98336.00
2023-04-11T20:09:26.331Z,98339.00
2023-04-11T20:11:55.932Z,98332.00
2023-04-11T20:14:25.344Z,98334.00
2023-04-11T20:16:54.723Z,98336.00
2023-04-11T20:19:28.606Z,98332.00
2023-04-11T20:21:58.124Z,98336.00
2023-04-11T20:24:27.450Z,98330.00
2023-04-11T20:26:58.146Z,98331.00
2023-04-11T20:29:33.638Z,98330.00
2023-04-11T20:32:03.197Z,98331.00
2023-04-11T20:34:32.763Z,98335.00
2023-04-11T20:37:02.280Z,98337.00
2023-04-11T20:39:35.448Z,98336.00
2023-04-11T20:42:05.219Z,98336.00
2023-04-11T20:44:37.217Z,98334.00
2023-04-11T20:47:08.440Z,98340.00
2023-04-11T20:49:37.907Z,98342.00
2023-04-11T20:52:07.242Z,98340.00
2023-04-11T20:54:36.879Z,98345.00
2023-04-11T20:57:06.326Z,98348.00
2023-04-11T20:59:35.729Z,98353.00
2023-04-11T21:02:05.117Z,98356.00
2023-04-11T21:04:34.704Z,98354.00
2023-04-11T21:07:04.190Z,98353.00
2023-04-11T21:09:33.520Z,98350.00
2023-04-11T21:12:03.360Z,98355.00
2023-04-11T21:14:34.105Z,98359.00
2023-04-11T21:17:03.560Z,98356.00
2023-04-11T21:19:32.887Z,98354.00
2023-04-11T21:22:02.393Z,98349.00
2023-04-11T21:24:36.164Z,98352.00
2023-04-11T21:27:05.512Z,98352.00
2023-04-11T21:29:34.828Z,98360.00
2023-04-11T21:32:04.317Z,98356.00
2023-04-11T21:34:33.868Z,98366.00
2023-04-11T21:37:03.285Z,98367.00
2023-04-11T21:39:32.993Z,98378.00
2023-04-11T21:42:02.670Z,98381.00
2023-04-11T21:44:32.008Z,98384.00
2023-04-11T21:47:01.643Z,98388.00
2023-04-11T21:49:31.222Z,98392.00
2023-04-11T21:52:00.553Z,98391.00
2023-04-11T21:54:29.949Z,98390.00
2023-04-11T21:56:59.318Z,98397.00
2023-04-11T21:59:28.777Z,98406.00
2023-04-11T22:01:58.652Z,98403.00
2023-04-11T22:04:29.950Z,98405.00
2023-04-11T22:06:59.474Z,98402.00
2023-04-11T22:09:29.276Z,98403.00
2023-04-11T22:11:58.594Z,98406.00
2023-04-11T22:14:29.733Z,98401.00
2023-04-11T22:16:59.269Z,98409.00
2023-04-11T22:19:29.805Z,98412.00
2023-04-11T22:21:59.134Z,98416.00
2023-04-11T22:24:32.271Z,98415.00
2023-04-11T22:27:05.161Z,98421.00
2023-04-11T22:29:35.652Z,98421.00
2023-04-11T22:32:05.070Z,98430.00
2023-04-11T22:34:43.929Z,98439.00
2023-04-11T22:37:13.252Z,98441.00
2023-04-11T22:39:43.825Z,98440.00
2023-04-11T22:42:13.525Z,98442.00
2023-04-11T22:44:43.119Z,98447.00
2023-04-11T22:47:14.444Z,98451.00
2023-04-11T22:49:45.647Z,98460.00
2023-04-11T22:52:23.750Z,98461.00
2023-04-11T22:54:53.471Z,98464.00
2023-04-11T22:57:22.853Z,98467.00
2023-04-11T22:59:52.167Z,98470.00
2023-04-11T23:02:21.789Z,98482.00
2023-04-11T23:04:51.246Z,98485.00
2023-04-11T23:07:20.647Z,98482.00
2023-04-11T23:09:49.957Z,98488.00
2023-04-11T23:12:19.548Z,98495.00
2023-04-11T23:14:51.409Z,98500.00
2023-04-11T23:17:20.748Z,98501.00
2023-04-11T23:19:50.343Z,98498.00
2023-04-11T23:22:19.752Z,98500.00
2023-04-11T23:24:50.099Z,98503.00
2023-04-11T23:27:20.190Z,98503.00
2023-04-11T23:29:55.146Z,98512.00
2023-04-11T23:32:24.686Z,98515.00
2023-04-11T23:34:54.141Z,98516.00
2023-04-11T23:37:23.528Z,98515.00
2023-04-11T23:39:53.353Z,98510.00
2023-04-11T23:42:23.638Z,98524.00
2023-04-11T23:44:53.414Z,98529.00
2023-04-11T23:47:26.128Z,98541.00
2023-04-11T23:49:55.468Z,98543.00
2023-04-11T23:52:24.812Z,98543.00
2023-04-11T23:54:54.549Z,98550.00
2023-04-11T23:57:25.166Z,98553.00
2023-04-11T23:59:57.601Z,98558.00
